createdAt,value
2023-01-02T00:00:11.496Z,13.5
2023-01-02T00:01:10.934Z,13.4
2023-01-02T00:02:10.810Z,13.4
2023-01-02T00:03:11.024Z,13.5
2023-01-02T00:04:10.944Z,13.5
2023-01-02T00:05:11.073Z,13.5
2023-01-02T00:06:11.063Z,13.5
2023-01-02T00:07:11.124Z,13.5
2023-01-02T00:08:11.152Z,13.6
2023-01-02T00:09:11.187Z,13.5
2023-01-02T00:10:11.257Z,13.5
2023-01-02T00:11:11.941Z,13.5
2023-01-02T00:12:11.398Z,13.5
2023-01-02T00:13:11.492Z,13.6
2023-01-02T00:14:11.572Z,13.6
2023-01-02T00:15:11.544Z,13.7
2023-01-02T00:16:11.638Z,13.6
2023-01-02T00:17:11.689Z,13.6
2023-01-02T00:18:11.708Z,13.6
2023-01-02T00:19:11.739Z,13.5
2023-01-02T00:20:11.823Z,13.5
2023-01-02T00:21:11.856Z,13.6
2023-01-02T00:22:12.033Z,13.6
2023-01-02T00:23:11.983Z,13.6
2023-01-02T00:24:35.252Z,13.6
2023-01-02T00:25:26.140Z,13.6
2023-01-02T00:26:25.928Z,13.7
2023-01-02T00:27:25.975Z,13.8
2023-01-02T00:28:25.989Z,13.8
2023-01-02T00:29:26.068Z,13.9
2023-01-02T00:30:26.105Z,13.8
2023-01-02T00:31:26.149Z,13.8
2023-01-02T00:32:26.234Z,13.8
2023-01-02T00:33:26.303Z,13.8
2023-01-02T00:34:26.320Z,13.7
2023-01-02T00:35:26.393Z,13.7
2023-01-02T00:36:26.449Z,13.6
2023-01-02T00:37:26.498Z,13.6
2023-01-02T00:38:26.526Z,13.7
2023-01-02T00:39:26.579Z,13.8
2023-01-02T00:40:26.638Z,13.7
2023-01-02T00:41:26.714Z,13.8
2023-01-02T00:42:26.762Z,13.8
2023-01-02T00:43:26.814Z,13.7
2023-01-02T00:44:26.867Z,13.7
2023-01-02T00:45:26.939Z,13.7
2023-01-02T00:46:26.996Z,13.6
2023-01-02T00:47:27.061Z,13.6
2023-01-02T00:48:27.080Z,13.6
2023-01-02T00:49:27.128Z,13.7
2023-01-02T00:50:27.205Z,13.8
2023-01-02T00:51:27.244Z,13.8
2023-01-02T00:52:27.323Z,13.7
2023-01-02T00:53:27.339Z,13.7
2023-01-02T00:54:27.409Z,13.6
2023-01-02T00:55:27.460Z,13.6
2023-01-02T00:56:27.507Z,13.6
2023-01-02T00:57:27.619Z,13.6
2023-01-02T00:58:27.646Z,13.7
2023-01-02T00:59:27.675Z,13.6
2023-01-02T01:00:27.775Z,13.6
2023-01-02T01:01:27.971Z,13.6
2023-01-02T01:02:27.999Z,13.5
2023-01-02T01:03:27.914Z,13.6
2023-01-02T01:04:27.973Z,13.7
2023-01-02T01:05:28.032Z,13.8
2023-01-02T01:06:28.093Z,13.7
2023-01-02T01:07:28.195Z,13.7
2023-01-02T01:08:28.200Z,13.6
2023-01-02T01:09:28.304Z,13.6
2023-01-02T01:10:28.356Z,13.6
2023-01-02T01:11:28.377Z,13.6
2023-01-02T01:12:28.526Z,13.7
2023-01-02T01:13:28.513Z,13.7
2023-01-02T01:14:28.555Z,13.7
2023-01-02T01:15:28.602Z,13.7
2023-01-02T01:16:28.697Z,13.7
2023-01-02T01:17:28.714Z,13.7
2023-01-02T01:18:28.805Z,13.7
2023-01-02T01:19:28.839Z,13.7
2023-01-02T01:20:28.933Z,13.6
2023-01-02T01:21:32.507Z,13.6
2023-01-02T01:22:29.042Z,13.7
2023-01-02T01:23:29.122Z,13.6
2023-01-02T01:24:29.517Z,13.7
2023-01-02T01:25:30.636Z,13.7
2023-01-02T01:26:29.234Z,13.7
2023-01-02T01:27:29.336Z,13.6
2023-01-02T01:28:29.976Z,13.7
2023-01-02T01:29:29.439Z,13.7
2023-01-02T01:30:29.466Z,13.7
2023-01-02T01:31:29.566Z,13.7
2023-01-02T01:32:29.574Z,13.7
2023-01-02T01:33:29.616Z,13.7
2023-01-02T01:34:29.730Z,13.6
2023-01-02T01:35:29.865Z,13.7
2023-01-02T01:36:29.976Z,13.7
2023-01-02T01:37:30.055Z,13.8
2023-01-02T01:38:30.092Z,13.8
2023-01-02T01:39:30.180Z,13.7
2023-01-02T01:40:30.241Z,13.7
2023-01-02T01:41:30.315Z,13.7
2023-01-02T01:42:30.351Z,13.8
2023-01-02T01:43:30.397Z,13.8
2023-01-02T01:44:30.474Z,13.7
2023-01-02T01:45:30.546Z,13.6
2023-01-02T01:46:30.582Z,13.7
2023-01-02T01:47:30.627Z,13.7
2023-01-02T01:48:30.721Z,13.8
2023-01-02T01:49:30.756Z,13.8
2023-01-02T01:50:30.812Z,13.7
2023-01-02T01:51:30.860Z,13.7
2023-01-02T01:52:30.937Z,13.7
2023-01-02T01:53:30.963Z,13.6
2023-01-02T01:54:30.998Z,13.6
2023-01-02T01:55:31.145Z,13.6
2023-01-02T01:56:31.175Z,13.6
2023-01-02T01:57:31.170Z,13.7
2023-01-02T01:58:31.197Z,13.7
2023-01-02T01:59:31.256Z,13.7
2023-01-02T02:00:31.306Z,13.7
2023-01-02T02:01:31.461Z,13.8
2023-01-02T02:02:31.521Z,13.8
2023-01-02T02:03:31.500Z,13.8
2023-01-02T02:04:31.539Z,13.8
2023-01-02T02:05:31.609Z,13.7
2023-01-02T02:06:31.654Z,13.7
2023-01-02T02:07:31.716Z,13.8
2023-01-02T02:08:31.746Z,13.8
2023-01-02T02:09:31.891Z,13.8
2023-01-02T02:10:31.970Z,13.8
2023-01-02T02:11:32.009Z,13.8
2023-01-02T02:12:32.013Z,13.7
2023-01-02T02:13:32.082Z,13.7
2023-01-02T02:14:32.105Z,13.6
2023-01-02T02:15:32.174Z,13.6
2023-01-02T02:16:32.299Z,13.6
2023-01-02T02:17:32.305Z,13.7
2023-01-02T02:18:32.348Z,13.7
2023-01-02T02:19:32.399Z,13.7
2023-01-02T02:20:32.479Z,13.7
2023-01-02T02:21:32.521Z,13.8
2023-01-02T02:22:32.564Z,13.8
2023-01-02T02:23:32.600Z,13.8
2023-01-02T02:24:32.680Z,13.8
2023-01-02T02:25:32.713Z,13.7
2023-01-02T02:26:32.767Z,13.8
2023-01-02T02:27:32.884Z,13.7
2023-01-02T02:28:32.994Z,13.7
2023-01-02T02:29:33.014Z,13.8
2023-01-02T02:30:33.077Z,13.8
2023-01-02T02:31:33.163Z,13.8
2023-01-02T02:32:33.176Z,13.8
2023-01-02T02:33:33.218Z,13.8
2023-01-02T02:34:33.300Z,13.8
2023-01-02T02:35:33.341Z,13.8
2023-01-02T02:36:33.425Z,13.8
2023-01-02T02:37:33.502Z,13.7
2023-01-02T02:38:33.488Z,13.7
2023-01-02T02:39:33.580Z,13.8
2023-01-02T02:40:33.631Z,13.8
2023-01-02T02:41:33.698Z,13.7
2023-01-02T02:42:33.761Z,13.8
2023-01-02T02:43:33.830Z,13.8
2023-01-02T02:44:33.878Z,13.8
2023-01-02T02:45:33.949Z,13.7
2023-01-02T02:46:33.966Z,13.7
2023-01-02T02:47:34.062Z,13.8
2023-01-02T02:48:34.112Z,13.7
2023-01-02T02:49:34.165Z,13.7
2023-01-02T02:50:34.232Z,13.6
2023-01-02T02:51:34.448Z,13.7
2023-01-02T02:52:34.437Z,13.6
2023-01-02T02:53:34.385Z,13.6
2023-01-02T02:54:34.481Z,13.7
2023-01-02T02:55:34.482Z,13.8
2023-01-02T02:56:34.526Z,13.8
2023-01-02T02:57:34.601Z,13.8
2023-01-02T02:58:34.627Z,13.8
2023-01-02T02:59:34.736Z,13.8
2023-01-02T03:00:34.735Z,13.7
2023-01-02T03:01:34.936Z,13.7
2023-01-02T03:02:35.044Z,13.7
2023-01-02T03:03:35.022Z,13.6
2023-01-02T03:04:35.064Z,13.7
2023-01-02T03:05:35.126Z,13.7
2023-01-02T03:06:35.136Z,13.7
2023-01-02T03:07:35.214Z,13.8
2023-01-02T03:08:35.269Z,13.8
2023-01-02T03:09:35.327Z,13.7
2023-01-02T03:10:35.446Z,13.7
2023-01-02T03:11:35.438Z,13.6
2023-01-02T03:12:35.573Z,13.6
2023-01-02T03:13:41.209Z,13.7
2023-01-02T03:14:35.623Z,13.6
2023-01-02T03:15:35.725Z,13.6
2023-01-02T03:16:35.840Z,13.7
2023-01-02T03:17:35.825Z,13.8
2023-01-02T03:18:35.845Z,13.7
2023-01-02T03:19:35.926Z,13.7
2023-01-02T03:20:35.937Z,13.6
2023-01-02T03:21:35.979Z,13.6
2023-01-02T03:22:36.084Z,13.6
2023-01-02T03:23:36.133Z,13.6
2023-01-02T03:24:36.176Z,13.7
2023-01-02T03:25:36.241Z,13.6
2023-01-02T03:26:36.309Z,13.7
2023-01-02T03:27:36.356Z,13.6
2023-01-02T03:28:36.366Z,13.6
2023-01-02T03:29:36.429Z,13.6
2023-01-02T03:30:36.563Z,13.6
2023-01-02T03:31:36.571Z,13.6
2023-01-02T03:32:36.594Z,13.7
2023-01-02T03:33:36.675Z,13.7
2023-01-02T03:34:36.707Z,13.7
2023-01-02T03:35:36.784Z,13.7
2023-01-02T03:36:36.932Z,13.7
2023-01-02T03:37:36.897Z,13.7
2023-01-02T03:38:36.907Z,13.7
2023-01-02T03:39:37.022Z,13.7
2023-01-02T03:40:37.081Z,13.6
2023-01-02T03:41:37.090Z,13.6
2023-01-02T03:42:37.170Z,13.6
2023-01-02T03:43:37.265Z,13.6
2023-01-02T03:44:37.245Z,13.6
2023-01-02T03:45:37.371Z,13.6
2023-01-02T03:46:37.401Z,13.6
2023-01-02T03:47:37.609Z,13.6
2023-01-02T03:48:37.563Z,13.6
2023-01-02T03:49:37.591Z,13.6
2023-01-02T03:50:37.585Z,13.6
2023-01-02T03:51:37.685Z,13.6
2023-01-02T03:52:37.786Z,13.6
2023-01-02T03:53:37.785Z,13.6
2023-01-02T03:54:37.813Z,13.6
2023-01-02T03:55:37.846Z,13.6
2023-01-02T03:56:37.909Z,13.5
2023-01-02T03:57:37.983Z,13.6
2023-01-02T03:58:38.030Z,13.6
2023-01-02T03:59:38.090Z,13.5
2023-01-02T04:00:38.145Z,13.6
2023-01-02T04:01:38.358Z,13.6
2023-01-02T04:02:38.335Z,13.6
2023-01-02T04:03:38.321Z,13.6
2023-01-02T04:04:38.353Z,13.6
2023-01-02T04:05:38.394Z,13.6
2023-01-02T04:07:36.239Z,13.5
2023-01-02T04:07:39.210Z,13.6
2023-01-02T04:08:38.593Z,13.6
2023-01-02T04:09:38.697Z,13.6
2023-01-02T04:10:38.722Z,13.6
2023-01-02T04:11:38.831Z,13.6
2023-01-02T04:12:38.918Z,13.5
2023-01-02T04:13:38.974Z,13.6
2023-01-02T04:14:39.031Z,13.5
2023-01-02T04:15:39.082Z,13.5
2023-01-02T04:16:39.133Z,13.5
2023-01-02T04:17:39.201Z,13.5
2023-01-02T04:18:44.687Z,13.5
2023-01-02T04:19:39.359Z,13.5
2023-01-02T04:20:39.362Z,13.5
2023-01-02T04:21:39.478Z,13.5
2023-01-02T04:22:39.537Z,13.5
2023-01-02T04:23:39.571Z,13.5
2023-01-02T04:24:39.629Z,13.5
2023-01-02T04:25:39.693Z,13.5
2023-01-02T04:26:39.739Z,13.4
2023-01-02T04:27:39.815Z,13.5
2023-01-02T04:28:39.864Z,13.5
2023-01-02T04:29:39.924Z,13.5
2023-01-02T04:31:29.986Z,13.4
2023-01-02T04:31:40.071Z,13.4
2023-01-02T04:32:40.070Z,13.5
2023-01-02T04:33:40.229Z,13.5
2023-01-02T04:34:40.205Z,13.5
2023-01-02T04:35:40.291Z,13.5
2023-01-02T04:36:40.310Z,13.5
2023-01-02T04:37:40.337Z,13.5
2023-01-02T04:38:40.421Z,13.5
2023-01-02T04:39:40.463Z,13.6
2023-01-02T04:40:40.496Z,13.6
2023-01-02T04:41:40.535Z,13.6
2023-01-02T04:42:40.626Z,13.5
2023-01-02T04:43:40.682Z,13.5
2023-01-02T04:44:40.754Z,13.5
2023-01-02T04:45:40.777Z,13.5
2023-01-02T04:46:40.868Z,13.5
2023-01-02T04:47:40.898Z,13.4
2023-01-02T04:48:40.951Z,13.3
2023-01-02T04:49:40.979Z,13.3
2023-01-02T04:50:41.230Z,13.4
2023-01-02T04:51:41.258Z,13.4
2023-01-02T04:52:41.277Z,13.5
2023-01-02T04:53:41.296Z,13.5
2023-01-02T04:54:41.325Z,13.5
2023-01-02T04:55:41.521Z,13.5
2023-01-02T04:56:41.518Z,13.4
2023-01-02T04:57:41.479Z,13.4
2023-01-02T04:58:41.561Z,13.4
2023-01-02T04:59:41.612Z,13.3
2023-01-02T05:00:41.653Z,13.4
2023-01-02T05:01:41.839Z,13.3
2023-01-02T05:02:41.892Z,13.3
2023-01-02T05:03:41.877Z,13.3
2023-01-02T05:04:41.873Z,13.4
2023-01-02T05:05:41.891Z,13.4
2023-01-02T05:06:41.973Z,13.3
2023-01-02T05:07:42.040Z,13.3
2023-01-02T05:08:42.058Z,13.3
2023-01-02T05:09:42.109Z,13.3
2023-01-02T05:10:42.169Z,13.3
2023-01-02T05:11:42.190Z,13.3
2023-01-02T05:12:42.276Z,13.3
2023-01-02T05:13:42.318Z,13.3
2023-01-02T05:14:42.365Z,13.3
2023-01-02T05:15:42.481Z,13.3
2023-01-02T05:16:42.504Z,13.3
2023-01-02T05:17:42.521Z,13.3
2023-01-02T05:18:42.575Z,13.3
2023-01-02T05:19:42.634Z,13.2
2023-01-02T05:20:42.699Z,13.3
2023-01-02T05:21:42.733Z,13.3
2023-01-02T05:22:42.762Z,13.3
2023-01-02T05:23:42.856Z,13.3
2023-01-02T05:24:42.867Z,13.3
2023-01-02T05:25:42.933Z,13.2
2023-01-02T05:26:42.985Z,13.2
2023-01-02T05:27:43.053Z,13.3
2023-01-02T05:28:43.140Z,13.4
2023-01-02T05:29:43.138Z,13.4
2023-01-02T05:30:43.240Z,13.3
2023-01-02T05:31:43.398Z,13.4
2023-01-02T05:32:43.311Z,13.3
2023-01-02T05:33:43.399Z,13.3
2023-01-02T05:34:43.416Z,13.4
2023-01-02T05:35:43.463Z,13.4
2023-01-02T05:36:43.551Z,13.3
2023-01-02T05:37:43.645Z,13.3
2023-01-02T05:38:43.708Z,13.3
2023-01-02T05:39:43.761Z,13.3
2023-01-02T05:40:43.764Z,13.4
2023-01-02T05:41:43.843Z,13.4
2023-01-02T05:42:43.895Z,13.4
2023-01-02T05:43:44.007Z,13.4
2023-01-02T05:44:44.027Z,13.3
2023-01-02T05:45:44.059Z,13.3
2023-01-02T05:46:44.246Z,13.3
2023-01-02T05:47:44.176Z,13.4
2023-01-02T05:48:44.262Z,13.4
2023-01-02T05:49:44.291Z,13.3
2023-01-02T05:50:44.317Z,13.3
2023-01-02T05:51:44.414Z,13.3
2023-01-02T05:52:45.946Z,13.3
2023-01-02T05:53:44.536Z,13.2
2023-01-02T05:54:44.591Z,13.3
2023-01-02T05:55:44.751Z,13.2
2023-01-02T05:56:44.692Z,13.2
2023-01-02T05:57:44.735Z,13.2
2023-01-02T05:58:44.808Z,13.2
2023-01-02T05:59:44.840Z,13.2
2023-01-02T06:00:44.952Z,13.1
2023-01-02T06:01:45.216Z,13.1
2023-01-02T06:02:48.164Z,13.2
2023-01-02T06:03:45.267Z,13.2
2023-01-02T06:04:45.265Z,13.2
2023-01-02T06:05:45.316Z,13.2
2023-01-02T06:06:45.888Z,13.2
2023-01-02T06:07:48.511Z,13.2
2023-01-02T06:08:45.490Z,13.3
2023-01-02T06:09:45.520Z,13.3
2023-01-02T06:10:45.617Z,13.3
2023-01-02T06:11:45.688Z,13.2
2023-01-02T06:12:45.737Z,13.2
2023-01-02T06:13:45.789Z,13.1
2023-01-02T06:14:45.847Z,13.1
2023-01-02T06:15:45.914Z,13
2023-01-02T06:16:46.075Z,12.9
2023-01-02T06:17:45.994Z,12.9
2023-01-02T06:18:46.086Z,12.9
2023-01-02T06:19:51.991Z,13
2023-01-02T06:20:46.176Z,13
2023-01-02T06:21:46.306Z,13.1
2023-01-02T06:22:46.309Z,13.1
2023-01-02T06:23:46.408Z,13.1
2023-01-02T06:24:46.426Z,13
2023-01-02T06:25:47.011Z,13.1
2023-01-02T06:26:51.968Z,13
2023-01-02T06:27:46.855Z,13
2023-01-02T06:28:46.882Z,13
2023-01-02T06:29:46.858Z,13
2023-01-02T06:30:46.904Z,13
2023-01-02T06:31:51.251Z,13.1
2023-01-02T06:32:47.139Z,13
2023-01-02T06:33:47.180Z,13
2023-01-02T06:34:47.193Z,13
2023-01-02T06:35:47.336Z,13.1
2023-01-02T06:36:47.341Z,13.1
2023-01-02T06:37:47.335Z,13
2023-01-02T06:38:47.350Z,13
2023-01-02T06:39:47.386Z,13.1
2023-01-02T06:40:47.390Z,13.1
2023-01-02T06:41:47.457Z,13.1
2023-01-02T06:42:47.538Z,13.1
2023-01-02T06:43:47.599Z,13.1
2023-01-02T06:44:47.614Z,13.1
2023-01-02T06:45:47.703Z,13.1
2023-01-02T06:46:47.788Z,13.1
2023-01-02T06:47:47.887Z,13.1
2023-01-02T06:48:48.020Z,13
2023-01-02T06:49:48.071Z,13
2023-01-02T06:50:48.111Z,13
2023-01-02T06:51:48.176Z,13.1
2023-01-02T06:52:48.247Z,13.1
2023-01-02T06:53:48.337Z,13
2023-01-02T06:54:48.388Z,13
2023-01-02T06:55:48.430Z,13.1
2023-01-02T06:56:48.487Z,13.1
2023-01-02T06:57:48.522Z,13
2023-01-02T06:58:48.625Z,13
2023-01-02T06:59:48.645Z,13
2023-01-02T07:00:48.728Z,13
2023-01-02T07:01:48.919Z,13
2023-01-02T07:02:48.883Z,13
2023-01-02T07:03:48.865Z,13
2023-01-02T07:04:48.964Z,12.9
2023-01-02T07:05:48.974Z,13
2023-01-02T07:06:49.023Z,13
2023-01-02T07:07:49.109Z,12.9
2023-01-02T07:08:49.171Z,13
2023-01-02T07:09:49.223Z,12.9
2023-01-02T07:10:52.765Z,12.9
2023-01-02T07:11:49.300Z,12.9
2023-01-02T07:12:49.388Z,12.9
2023-01-02T07:13:49.476Z,12.9
2023-01-02T07:14:49.563Z,12.9
2023-01-02T07:15:49.581Z,12.8
2023-01-02T07:16:49.674Z,12.9
2023-01-02T07:17:50.548Z,12.9
2023-01-02T07:18:49.784Z,12.8
2023-01-02T07:19:53.903Z,12.8
2023-01-02T07:20:49.891Z,12.8
2023-01-02T07:21:50.831Z,12.9
2023-01-02T07:23:08.133Z,12.9
2023-01-02T07:23:50.121Z,12.9
2023-01-02T07:24:50.161Z,12.8
2023-01-02T07:25:50.260Z,12.7
2023-01-02T07:26:50.357Z,12.7
2023-01-02T07:27:50.413Z,12.8
2023-01-02T07:28:50.474Z,12.8
2023-01-02T07:29:50.570Z,12.8
2023-01-02T07:30:50.643Z,12.8
2023-01-02T07:31:50.681Z,12.8
2023-01-02T07:32:50.657Z,12.8
2023-01-02T07:33:50.732Z,12.8
2023-01-02T07:34:50.779Z,12.7
2023-01-02T07:35:50.845Z,12.7
2023-01-02T07:36:50.922Z,12.6
2023-01-02T07:37:50.967Z,12.7
2023-01-02T07:38:51.047Z,12.7
2023-01-02T07:39:51.053Z,12.7
2023-01-02T07:40:51.144Z,12.7
2023-01-02T07:41:51.240Z,12.7
2023-01-02T07:42:51.203Z,12.7
2023-01-02T07:43:51.273Z,12.7
2023-01-02T07:44:51.317Z,12.7
2023-01-02T07:45:51.556Z,12.7
2023-01-02T07:46:51.472Z,12.7
2023-01-02T07:47:51.483Z,12.7
2023-01-02T07:48:51.569Z,12.7
2023-01-02T07:49:51.710Z,12.7
2023-01-02T07:50:52.032Z,12.7
2023-01-02T07:51:51.766Z,12.7
2023-01-02T07:52:52.252Z,12.6
2023-01-02T07:53:51.881Z,12.6
2023-01-02T07:54:51.962Z,12.7
2023-01-02T07:55:52.013Z,12.7
2023-01-02T07:56:52.056Z,12.8
2023-01-02T07:57:52.073Z,12.7
2023-01-02T07:58:52.144Z,12.7
2023-01-02T07:59:52.230Z,12.7
2023-01-02T08:00:52.494Z,12.7
2023-01-02T08:01:52.470Z,12.8
2023-01-02T08:02:52.428Z,12.7
2023-01-02T08:03:52.480Z,12.7
2023-01-02T08:04:52.476Z,12.7
2023-01-02T08:05:52.505Z,12.7
2023-01-02T08:06:52.840Z,12.7
2023-01-02T08:07:52.663Z,12.7
2023-01-02T08:08:52.762Z,12.8
2023-01-02T08:09:52.753Z,12.8
2023-01-02T08:10:52.793Z,12.8
2023-01-02T08:11:57.965Z,12.8
2023-01-02T08:12:52.901Z,12.8
2023-01-02T08:13:54.014Z,12.7
2023-01-02T08:14:53.042Z,12.7
2023-01-02T08:15:53.063Z,12.8
2023-01-02T08:16:53.151Z,12.8
2023-01-02T08:17:53.437Z,12.8
2023-01-02T08:18:53.250Z,12.8
2023-01-02T08:19:53.554Z,12.7
2023-01-02T08:20:57.024Z,12.7
2023-01-02T08:21:53.466Z,12.8
2023-01-02T08:22:53.527Z,12.8
2023-01-02T08:23:53.801Z,12.7
2023-01-02T08:24:53.866Z,12.7
2023-01-02T08:25:57.417Z,12.7
2023-01-02T08:26:53.710Z,12.8
2023-01-02T08:27:58.741Z,12.8
2023-01-02T08:28:53.802Z,12.8
2023-01-02T08:29:53.879Z,12.7
2023-01-02T08:30:53.988Z,12.7
2023-01-02T08:31:53.957Z,12.7
2023-01-02T08:32:54.363Z,12.6
2023-01-02T08:33:54.087Z,12.7
2023-01-02T08:34:54.274Z,12.7
2023-01-02T08:35:54.199Z,12.8
2023-01-02T08:36:54.487Z,12.8
2023-01-02T08:37:54.306Z,12.8
2023-01-02T08:38:54.508Z,12.8
2023-01-02T08:39:54.456Z,12.7
2023-01-02T08:40:54.452Z,12.7
2023-01-02T08:41:54.511Z,12.7
2023-01-02T08:42:54.772Z,12.7
2023-01-02T08:44:12.151Z,12.7
2023-01-02T08:44:54.715Z,12.7
2023-01-02T08:46:45.422Z,12.7
2023-01-02T08:48:27.441Z,12.7
2023-01-02T08:48:54.889Z,12.7
2023-01-02T08:49:54.979Z,12.7
2023-01-02T08:50:55.059Z,12.7
2023-01-02T08:51:55.149Z,12.7
2023-01-02T08:53:00.141Z,12.6
2023-01-02T08:53:55.911Z,12.6
2023-01-02T08:54:55.325Z,12.6
2023-01-02T08:55:55.346Z,12.6
2023-01-02T08:56:55.378Z,12.6
2023-01-02T08:57:55.699Z,12.6
2023-01-02T08:58:55.544Z,12.6
2023-01-02T08:59:55.627Z,12.6
2023-01-02T09:00:55.629Z,12.6
2023-01-02T09:01:55.902Z,12.6
2023-01-02T09:02:55.903Z,12.6
2023-01-02T09:03:55.818Z,12.6
2023-01-02T09:04:55.910Z,12.6
2023-01-02T09:05:56.144Z,12.6
2023-01-02T09:06:56.012Z,12.6
2023-01-02T09:07:56.081Z,12.6
2023-01-02T09:08:59.281Z,12.5
2023-01-02T09:10:21.846Z,12.6
2023-01-02T09:10:57.151Z,12.6
2023-01-02T09:11:57.935Z,12.5
2023-01-02T09:12:56.835Z,12.4
2023-01-02T09:13:56.382Z,12.4
2023-01-02T09:14:56.488Z,12.4
2023-01-02T09:16:07.986Z,12.4
2023-01-02T09:16:56.592Z,12.4
2023-01-02T09:17:56.714Z,12.4
2023-01-02T09:18:56.714Z,12.4
2023-01-02T09:19:56.746Z,12.3
2023-01-02T09:20:56.844Z,12.2
2023-01-02T09:21:56.991Z,12.1
2023-01-02T09:22:57.008Z,11.9
2023-01-02T09:23:57.024Z,11.8
2023-01-02T09:24:57.133Z,11.7
2023-01-02T09:25:57.173Z,11.7
2023-01-02T09:26:57.224Z,11.6
2023-01-02T09:27:57.312Z,11.6
2023-01-02T09:28:57.328Z,11.5
2023-01-02T09:29:57.357Z,11.3
2023-01-02T09:30:57.445Z,11.3
2023-01-02T09:31:57.467Z,11.3
2023-01-02T09:32:57.531Z,11.3
2023-01-02T09:33:57.593Z,11.2
2023-01-02T09:34:57.728Z,11
2023-01-02T09:35:57.675Z,11
2023-01-02T09:36:57.727Z,11.1
2023-01-02T09:37:57.833Z,11
2023-01-02T09:38:57.890Z,11.1
2023-01-02T09:39:57.877Z,11.2
2023-01-02T09:40:57.898Z,11.2
2023-01-02T09:41:57.977Z,11.1
2023-01-02T09:42:58.040Z,11.1
2023-01-02T09:43:58.107Z,11.2
2023-01-02T09:45:01.635Z,11.1
2023-01-02T09:45:58.270Z,11
2023-01-02T09:46:58.308Z,11
2023-01-02T09:47:58.314Z,10.9
2023-01-02T09:48:58.396Z,11
2023-01-02T09:49:58.432Z,11
2023-01-02T09:51:01.392Z,11.1
2023-01-02T09:51:58.599Z,11
2023-01-02T09:52:58.706Z,11
2023-01-02T09:53:58.746Z,11
2023-01-02T09:54:58.822Z,10.8
2023-01-02T09:55:58.808Z,10.8
2023-01-02T09:56:58.899Z,10.9
2023-01-02T09:57:58.908Z,10.9
2023-01-02T09:58:58.938Z,10.9
2023-01-02T09:59:59.019Z,10.9
2023-01-02T10:00:59.041Z,10.8
2023-01-02T10:01:59.173Z,10.8
2023-01-02T10:03:02.817Z,10.7
2023-01-02T10:03:59.256Z,10.7
2023-01-02T10:04:59.275Z,10.7
2023-01-02T10:05:59.316Z,10.8
2023-01-02T10:06:59.401Z,10.8
2023-01-02T10:07:59.438Z,10.7
2023-01-02T10:08:59.476Z,10.7
2023-01-02T10:09:59.581Z,10.7
2023-01-02T10:10:59.646Z,10.7
2023-01-02T10:11:59.658Z,10.7
2023-01-02T10:12:59.729Z,10.6
2023-01-02T10:14:31.416Z,10.7
2023-01-02T10:14:59.846Z,10.6
2023-01-02T10:15:59.946Z,10.6
2023-01-02T10:16:59.948Z,10.7
2023-01-02T10:17:59.998Z,10.8
2023-01-02T10:19:00.082Z,10.7
2023-01-02T10:20:00.149Z,10.5
2023-01-02T10:21:00.154Z,10.5
2023-01-02T10:22:00.396Z,10.5
2023-01-02T10:23:00.323Z,10.6
2023-01-02T10:24:00.333Z,10.7
2023-01-02T10:25:00.446Z,10.6
2023-01-02T10:26:00.702Z,10.6
2023-01-02T10:27:00.537Z,10.6
2023-01-02T10:28:00.689Z,10.6
2023-01-02T10:29:00.619Z,10.6
2023-01-02T10:30:00.676Z,10.7
2023-01-02T10:31:05.500Z,10.7
2023-01-02T10:32:00.821Z,10.6
2023-01-02T10:33:00.857Z,10.6
2023-01-02T10:34:00.925Z,10.6
2023-01-02T10:35:00.978Z,10.5
2023-01-02T10:36:01.048Z,10.5
2023-01-02T10:37:06.176Z,10.5
2023-01-02T10:38:01.148Z,10.6
2023-01-02T10:39:01.264Z,10.7
2023-01-02T10:40:01.319Z,10.6
2023-01-02T10:41:01.307Z,10.6
2023-01-02T10:42:01.431Z,10.6
2023-01-02T10:43:01.508Z,10.6
2023-01-02T10:44:01.471Z,10.6
2023-01-02T10:45:01.550Z,10.6
2023-01-02T10:46:01.675Z,10.6
2023-01-02T10:47:01.696Z,10.6
2023-01-02T10:48:01.743Z,10.6
2023-01-02T10:49:02.040Z,10.6
2023-01-02T10:50:02.055Z,10.6
2023-01-02T10:51:02.045Z,10.7
2023-01-02T10:52:02.006Z,10.7
2023-01-02T10:53:02.080Z,10.6
2023-01-02T10:54:02.168Z,10.6
2023-01-02T10:55:02.184Z,10.7
2023-01-02T10:56:02.241Z,10.6
2023-01-02T10:57:02.277Z,10.6
2023-01-02T10:58:02.303Z,10.6
2023-01-02T10:59:02.379Z,10.7
2023-01-02T11:00:02.397Z,10.7
2023-01-02T11:01:02.482Z,10.7
2023-01-02T11:02:02.586Z,10.7
2023-01-02T11:03:02.575Z,10.7
2023-01-02T11:04:02.636Z,10.7
2023-01-02T11:05:02.680Z,10.6
2023-01-02T11:06:26.627Z,10.6
2023-01-02T11:07:02.812Z,10.6
2023-01-02T11:08:02.845Z,10.6
2023-01-02T11:09:02.891Z,10.6
2023-01-02T11:10:03.048Z,10.7
2023-01-02T11:11:03.038Z,10.5
2023-01-02T11:12:03.136Z,10.5
2023-01-02T11:13:03.175Z,10.6
2023-01-02T11:14:03.214Z,10.6
2023-01-02T11:15:03.312Z,10.6
2023-01-02T11:16:03.339Z,10.6
2023-01-02T11:17:03.388Z,10.7
2023-01-02T11:18:03.429Z,10.7
2023-01-02T11:19:03.478Z,10.5
2023-01-02T11:20:03.556Z,10.5
2023-01-02T11:21:03.602Z,10.4
2023-01-02T11:22:03.683Z,10.4
2023-01-02T11:23:03.712Z,10.5
2023-01-02T11:24:03.815Z,10.6
2023-01-02T11:25:03.870Z,10.5
2023-01-02T11:26:03.908Z,10.5
2023-01-02T11:27:03.965Z,10.5
2023-01-02T11:28:03.994Z,10.6
2023-01-02T11:29:04.079Z,10.5
2023-01-02T11:30:04.265Z,10.5
2023-01-02T11:31:04.269Z,10.5
2023-01-02T11:32:04.588Z,10.5
2023-01-02T11:33:04.314Z,10.6
2023-01-02T11:34:04.596Z,10.6
2023-01-02T11:35:04.415Z,10.5
2023-01-02T11:36:04.484Z,10.5
2023-01-02T11:37:04.553Z,10.5
2023-01-02T11:38:04.603Z,10.5
2023-01-02T11:39:04.659Z,10.5
2023-01-02T11:40:04.921Z,10.6
2023-01-02T11:41:04.950Z,10.6
2023-01-02T11:42:04.947Z,10.5
2023-01-02T11:43:04.904Z,10.5
2023-01-02T11:44:04.947Z,10.5
2023-01-02T11:45:05.000Z,10.5
2023-01-02T11:46:05.039Z,10.4
2023-01-02T11:47:05.152Z,10.3
2023-01-02T11:48:05.209Z,10.4
2023-01-02T11:49:05.316Z,10.4
2023-01-02T11:50:05.297Z,10.4
2023-01-02T11:51:05.336Z,10.4
2023-01-02T11:52:05.360Z,10.4
2023-01-02T11:53:05.465Z,10.4
2023-01-02T11:54:05.581Z,10.4
2023-01-02T11:55:05.555Z,10.4
2023-01-02T11:56:05.595Z,10.5
2023-01-02T11:57:05.723Z,10.5
2023-01-02T11:58:05.750Z,10.5
2023-01-02T11:59:05.777Z,10.6
2023-01-02T12:00:05.877Z,10.5
2023-01-02T12:01:05.906Z,10.4
2023-01-02T12:02:06.107Z,10.5
2023-01-02T12:03:06.260Z,10.6
2023-01-02T12:04:06.260Z,10.6
2023-01-02T12:05:06.192Z,10.6
2023-01-02T12:06:06.253Z,10.6
2023-01-02T12:07:06.322Z,10.6
2023-01-02T12:08:06.371Z,10.5
2023-01-02T12:09:06.514Z,10.5
2023-01-02T12:10:06.545Z,10.5
2023-01-02T12:11:06.623Z,10.4
2023-01-02T12:12:06.648Z,10.4
2023-01-02T12:13:06.646Z,10.4
2023-01-02T12:14:06.679Z,10.4
2023-01-02T12:15:06.743Z,10.5
2023-01-02T12:16:06.805Z,10.5
2023-01-02T12:17:06.880Z,10.6
2023-01-02T12:18:06.953Z,10.6
2023-01-02T12:19:06.982Z,10.6
2023-01-02T12:20:06.992Z,10.6
2023-01-02T12:21:07.073Z,10.7
2023-01-02T12:22:07.133Z,10.7
2023-01-02T12:23:07.123Z,10.6
2023-01-02T12:24:07.620Z,10.7
2023-01-02T12:25:07.288Z,10.5
2023-01-02T12:26:09.540Z,10.5
2023-01-02T12:27:07.551Z,10.5
2023-01-02T12:28:07.417Z,10.5
2023-01-02T12:29:07.467Z,10.5
2023-01-02T12:30:07.551Z,10.5
2023-01-02T12:31:07.584Z,10.5
2023-01-02T12:32:07.675Z,10.4
2023-01-02T12:33:07.720Z,10.7
2023-01-02T12:34:07.779Z,11.9
2023-01-02T12:35:07.934Z,12
2023-01-02T12:36:07.936Z,11.2
2023-01-02T12:37:08.025Z,10.8
2023-01-02T12:38:08.067Z,10.7
2023-01-02T12:39:08.109Z,10.6
2023-01-02T12:40:08.157Z,10.6
2023-01-02T12:42:10.426Z,10.6
2023-01-02T12:43:08.319Z,10.6
2023-01-02T12:44:08.376Z,10.7
2023-01-02T12:45:08.495Z,10.7
2023-01-02T12:46:08.556Z,10.6
2023-01-02T12:47:08.546Z,10.6
2023-01-02T12:48:08.648Z,10.6
2023-01-02T12:49:08.705Z,10.6
2023-01-02T12:50:08.760Z,10.6
2023-01-02T12:51:08.837Z,10.5
2023-01-02T12:52:08.898Z,10.4
2023-01-02T12:53:08.909Z,10.4
2023-01-02T12:54:18.556Z,10.5
2023-01-02T12:55:09.123Z,10.5
2023-01-02T12:56:09.102Z,10.6
2023-01-02T12:57:09.190Z,10.5
2023-01-02T12:58:09.225Z,10.4
2023-01-02T12:59:09.234Z,10.4
2023-01-02T13:00:09.277Z,10.4
2023-01-02T13:01:09.380Z,10.4
2023-01-02T13:02:09.538Z,10.5
2023-01-02T13:03:09.662Z,10.4
2023-01-02T13:04:52.196Z,10.4
2023-01-02T13:05:09.622Z,10.4
2023-01-02T13:06:43.261Z,10.3
2023-01-02T13:07:09.783Z,10.2
2023-01-02T13:08:09.819Z,10.2
2023-01-02T13:09:09.882Z,10.2
2023-01-02T13:10:09.977Z,10.1
2023-01-02T13:11:09.990Z,10.2
2023-01-02T13:12:10.007Z,10.2
2023-01-02T13:13:10.113Z,10.2
2023-01-02T13:14:10.169Z,10.2
2023-01-02T13:15:10.262Z,10.2
2023-01-02T13:16:20.908Z,10.1
2023-01-02T13:17:10.299Z,10.1
2023-01-02T13:18:10.421Z,10.1
2023-01-02T13:19:10.514Z,10
2023-01-02T13:20:11.003Z,10
2023-01-02T13:21:10.687Z,9.9
2023-01-02T13:22:10.815Z,9.9
2023-01-02T13:23:11.928Z,10
2023-01-02T13:24:12.316Z,9.9